sensor_id;sensor_type;location;lat;lon;timestamp;pressure;altitude;pressure_sealevel;temperature;humidity
73453;BME280;61687;56.232;43.854;2023-04-22T00:00:40;100128.56;;;9.27;40.94
73453;BME280;61687;56.232;43.854;2023-04-22T00:03:07;100126.97;;;9.26;41.01
73453;BME280;61687;56.232;43.854;2023-04-22T00:05:33;100122.22;;;9.23;41.00
73453;BME280;61687;56.232;43.854;2023-04-22T00:07:59;100123.75;;;9.20;41.09
73453;BME280;61687;56.232;43.854;2023-04-22T00:10:26;100124.47;;;9.17;41.00
73453;BME280;61687;56.232;43.854;2023-04-22T00:12:52;100120.50;;;9.14;41.29
73453;BME280;61687;56.232;43.854;2023-04-22T00:15:18;100123.97;;;9.11;41.30
73453;BME280;61687;56.232;43.854;2023-04-22T00:17:47;100120.38;;;9.07;41.30
73453;BME280;61687;56.232;43.854;2023-04-22T00:20:14;100121.81;;;9.01;41.42
73453;BME280;61687;56.232;43.854;2023-04-22T00:22:41;100123.34;;;8.98;41.39
73453;BME280;61687;56.232;43.854;2023-04-22T00:25:07;100118.59;;;8.95;41.48
73453;BME280;61687;56.232;43.854;2023-04-22T00:27:33;100112.34;;;8.95;41.36
73453;BME280;61687;56.232;43.854;2023-04-22T00:29:59;100114.63;;;8.93;41.55
73453;BME280;61687;56.232;43.854;2023-04-22T00:32:25;100123.91;;;8.88;41.65
73453;BME280;61687;56.232;43.854;2023-04-22T00:34:51;100116.38;;;8.81;41.81
73453;BME280;61687;56.232;43.854;2023-04-22T00:37:18;100113.56;;;8.78;41.85
73453;BME280;61687;56.232;43.854;2023-04-22T00:39:44;100110.84;;;8.78;41.89
73453;BME280;61687;56.232;43.854;2023-04-22T00:42:12;100105.38;;;8.78;41.94
73453;BME280;61687;56.232;43.854;2023-04-22T00:44:39;100105.00;;;8.79;41.71
73453;BME280;61687;56.232;43.854;2023-04-22T00:47:06;100115.22;;;8.82;41.68
73453;BME280;61687;56.232;43.854;2023-04-22T00:49:34;100111.28;;;8.80;41.68
73453;BME280;61687;56.232;43.854;2023-04-22T00:52:00;100110.84;;;8.78;41.61
73453;BME280;61687;56.232;43.854;2023-04-22T00:54:26;100116.66;;;8.76;41.80
73453;BME280;61687;56.232;43.854;2023-04-22T00:56:54;100111.56;;;8.75;41.85
73453;BME280;61687;56.232;43.854;2023-04-22T00:59:22;100113.44;;;8.70;41.89
73453;BME280;61687;56.232;43.854;2023-04-22T01:01:49;100113.78;;;8.69;41.89
73453;BME280;61687;56.232;43.854;2023-04-22T01:04:15;100119.97;;;8.66;41.96
73453;BME280;61687;56.232;43.854;2023-04-22T01:06:43;100112.41;;;8.59;42.10
73453;BME280;61687;56.232;43.854;2023-04-22T01:09:09;100109.88;;;8.50;42.25
73453;BME280;61687;56.232;43.854;2023-04-22T01:11:35;100107.41;;;8.45;42.36
73453;BME280;61687;56.232;43.854;2023-04-22T01:14:02;100105.75;;;8.40;42.49
73453;BME280;61687;56.232;43.854;2023-04-22T01:16:29;100112.72;;;8.38;42.74
73453;BME280;61687;56.232;43.854;2023-04-22T01:18:58;100108.47;;;8.40;42.59
73453;BME280;61687;56.232;43.854;2023-04-22T01:21:26;100105.97;;;8.31;42.87
73453;BME280;61687;56.232;43.854;2023-04-22T01:23:53;100097.63;;;8.24;43.14
73453;BME280;61687;56.232;43.854;2023-04-22T01:26:19;100098.69;;;8.20;43.18
73453;BME280;61687;56.232;43.854;2023-04-22T01:28:45;100094.28;;;8.15;43.25
73453;BME280;61687;56.232;43.854;2023-04-22T01:31:11;100095.44;;;8.14;43.20
73453;BME280;61687;56.232;43.854;2023-04-22T01:33:37;100089.38;;;8.05;43.58
73453;BME280;61687;56.232;43.854;2023-04-22T01:36:04;100095.03;;;7.96;43.88
73453;BME280;61687;56.232;43.854;2023-04-22T01:38:30;100092.06;;;7.85;44.33
73453;BME280;61687;56.232;43.854;2023-04-22T01:41:00;100094.69;;;7.81;44.63
73453;BME280;61687;56.232;43.854;2023-04-22T01:43:28;100098.03;;;7.74;45.21
73453;BME280;61687;56.232;43.854;2023-04-22T01:45:56;100097.78;;;7.64;45.72
73453;BME280;61687;56.232;43.854;2023-04-22T01:48:22;100092.16;;;7.56;46.16
73453;BME280;61687;56.232;43.854;2023-04-22T01:50:49;100092.78;;;7.50;46.65
73453;BME280;61687;56.232;43.854;2023-04-22T01:53:15;100099.53;;;7.40;46.70
73453;BME280;61687;56.232;43.854;2023-04-22T01:55:41;100098.94;;;7.30;47.03
73453;BME280;61687;56.232;43.854;2023-04-22T01:58:10;100094.88;;;7.24;47.29
73453;BME280;61687;56.232;43.854;2023-04-22T02:00:37;100093.63;;;7.22;47.20
73453;BME280;61687;56.232;43.854;2023-04-22T02:03:03;100095.50;;;7.18;47.15
73453;BME280;61687;56.232;43.854;2023-04-22T02:05:29;100093.91;;;7.16;47.07
73453;BME280;61687;56.232;43.854;2023-04-22T02:07:55;100101.72;;;7.18;47.30
73453;BME280;61687;56.232;43.854;2023-04-22T02:10:21;100102.53;;;7.19;47.00
73453;BME280;61687;56.232;43.854;2023-04-22T02:12:49;100099.63;;;7.11;47.74
73453;BME280;61687;56.232;43.854;2023-04-22T02:15:15;100097.22;;;7.10;47.67
73453;BME280;61687;56.232;43.854;2023-04-22T02:17:42;100096.97;;;7.15;47.37
73453;BME280;61687;56.232;43.854;2023-04-22T02:20:09;100095.94;;;7.20;47.28
73453;BME280;61687;56.232;43.854;2023-04-22T02:22:39;100102.25;;;7.24;47.27
73453;BME280;61687;56.232;43.854;2023-04-22T02:25:07;100100.22;;;7.21;47.39
73453;BME280;61687;56.232;43.854;2023-04-22T02:27:33;100103.66;;;7.18;47.57
73453;BME280;61687;56.232;43.854;2023-04-22T02:29:59;100101.38;;;7.20;47.55
73453;BME280;61687;56.232;43.854;2023-04-22T02:32:26;100099.97;;;7.26;47.22
73453;BME280;61687;56.232;43.854;2023-04-22T02:34:52;100109.72;;;7.27;47.41
73453;BME280;61687;56.232;43.854;2023-04-22T02:37:20;100107.09;;;7.30;47.42
73453;BME280;61687;56.232;43.854;2023-04-22T02:39:48;100113.34;;;7.31;47.49
73453;BME280;61687;56.232;43.854;2023-04-22T02:42:14;100112.72;;;7.38;47.16
73453;BME280;61687;56.232;43.854;2023-04-22T02:44:40;100108.16;;;7.42;46.90
73453;BME280;61687;56.232;43.854;2023-04-22T02:47:08;100110.81;;;7.38;46.96
73453;BME280;61687;56.232;43.854;2023-04-22T02:49:34;100110.09;;;7.41;47.13
73453;BME280;61687;56.232;43.854;2023-04-22T02:52:00;100108.63;;;7.44;47.11
73453;BME280;61687;56.232;43.854;2023-04-22T02:54:26;100112.28;;;7.52;46.95
73453;BME280;61687;56.232;43.854;2023-04-22T02:56:52;100111.53;;;7.51;47.02
73453;BME280;61687;56.232;43.854;2023-04-22T02:59:17;100111.25;;;7.56;46.70
73453;BME280;61687;56.232;43.854;2023-04-22T03:01:44;100115.50;;;7.54;47.07
73453;BME280;61687;56.232;43.854;2023-04-22T03:04:18;100111.63;;;7.55;46.95
73453;BME280;61687;56.232;43.854;2023-04-22T03:06:49;100110.63;;;7.63;46.90
73453;BME280;61687;56.232;43.854;2023-04-22T03:09:16;100107.75;;;7.72;46.60
73453;BME280;61687;56.232;43.854;2023-04-22T03:11:42;100112.47;;;7.75;46.40
73453;BME280;61687;56.232;43.854;2023-04-22T03:14:09;100116.94;;;7.83;46.17
73453;BME280;61687;56.232;43.854;2023-04-22T03:16:35;100113.88;;;7.85;46.18
73453;BME280;61687;56.232;43.854;2023-04-22T03:19:03;100117.06;;;7.87;46.10
73453;BME280;61687;56.232;43.854;2023-04-22T03:21:29;100109.81;;;7.95;45.92
73453;BME280;61687;56.232;43.854;2023-04-22T03:23:57;100111.50;;;7.99;45.67
73453;BME280;61687;56.232;43.854;2023-04-22T03:26:25;100118.16;;;8.02;45.66
73453;BME280;61687;56.232;43.854;2023-04-22T03:28:52;100114.03;;;8.08;45.66
73453;BME280;61687;56.232;43.854;2023-04-22T03:31:18;100112.69;;;8.18;45.32
73453;BME280;61687;56.232;43.854;2023-04-22T03:33:45;100112.41;;;8.23;45.31
73453;BME280;61687;56.232;43.854;2023-04-22T03:36:18;100120.47;;;8.36;45.13
73453;BME280;61687;56.232;43.854;2023-04-22T03:38:44;100116.69;;;8.40;45.18
73453;BME280;61687;56.232;43.854;2023-04-22T03:41:10;100112.44;;;8.43;45.07
73453;BME280;61687;56.232;43.854;2023-04-22T03:43:40;100124.97;;;8.44;44.98
73453;BME280;61687;56.232;43.854;2023-04-22T03:46:08;100116.03;;;8.47;44.49
73453;BME280;61687;56.232;43.854;2023-04-22T03:48:37;100125.81;;;8.48;44.39
73453;BME280;61687;56.232;43.854;2023-04-22T03:51:08;100113.22;;;8.59;44.34
73453;BME280;61687;56.232;43.854;2023-04-22T03:53:36;100119.59;;;8.67;44.25
73453;BME280;61687;56.232;43.854;2023-04-22T03:56:03;100122.41;;;8.71;43.92
73453;BME280;61687;56.232;43.854;2023-04-22T03:58:32;100119.75;;;8.75;43.86
73453;BME280;61687;56.232;43.854;2023-04-22T04:01:00;100118.03;;;8.86;43.62
73453;BME280;61687;56.232;43.854;2023-04-22T04:03:26;100126.50;;;9.00;43.38
73453;BME280;61687;56.232;43.854;2023-04-22T04:05:53;100124.94;;;8.99;43.29
73453;BME280;61687;56.232;43.854;2023-04-22T04:08:21;100124.28;;;9.06;43.19
73453;BME280;61687;56.232;43.854;2023-04-22T04:10:48;100123.56;;;9.09;43.25
73453;BME280;61687;56.232;43.854;2023-04-22T04:13:15;100120.16;;;9.16;42.96
73453;BME280;61687;56.232;43.854;2023-04-22T04:16:10;100117.13;;;9.21;42.85
73453;BME280;61687;56.232;43.854;2023-04-22T04:18:38;100116.91;;;9.30;42.64
73453;BME280;61687;56.232;43.854;2023-04-22T04:21:05;100114.59;;;9.32;42.38
73453;BME280;61687;56.232;43.854;2023-04-22T04:23:34;100117.19;;;9.48;42.08
73453;BME280;61687;56.232;43.854;2023-04-22T04:26:01;100123.69;;;9.63;41.89
73453;BME280;61687;56.232;43.854;2023-04-22T04:28:28;100117.25;;;9.75;41.64
73453;BME280;61687;56.232;43.854;2023-04-22T04:30:59;100121.19;;;9.78;41.67
73453;BME280;61687;56.232;43.854;2023-04-22T04:33:28;100118.53;;;9.81;41.51
73453;BME280;61687;56.232;43.854;2023-04-22T04:35:54;100121.38;;;9.88;41.46
73453;BME280;61687;56.232;43.854;2023-04-22T04:38:26;100115.72;;;10.05;41.26
73453;BME280;61687;56.232;43.854;2023-04-22T04:40:53;100115.59;;;10.21;40.89
73453;BME280;61687;56.232;43.854;2023-04-22T04:43:22;100116.91;;;10.30;40.80
73453;BME280;61687;56.232;43.854;2023-04-22T04:45:56;100120.16;;;10.40;40.27
73453;BME280;61687;56.232;43.854;2023-04-22T04:48:30;100117.09;;;10.45;40.18
73453;BME280;61687;56.232;43.854;2023-04-22T04:51:05;100116.13;;;10.61;40.05
73453;BME280;61687;56.232;43.854;2023-04-22T04:53:37;100102.94;;;10.70;39.87
73453;BME280;61687;56.232;43.854;2023-04-22T04:56:03;100112.06;;;10.81;39.49
73453;BME280;61687;56.232;43.854;2023-04-22T04:58:29;100107.00;;;10.83;39.42
73453;BME280;61687;56.232;43.854;2023-04-22T05:01:18;100113.13;;;11.04;39.42
73453;BME280;61687;56.232;43.854;2023-04-22T05:03:46;100113.59;;;11.13;38.95
73453;BME280;61687;56.232;43.854;2023-04-22T05:06:14;100113.22;;;11.14;39.00
73453;BME280;61687;56.232;43.854;2023-04-22T05:08:45;100115.97;;;11.14;38.56
73453;BME280;61687;56.232;43.854;2023-04-22T05:11:12;100110.19;;;11.27;38.79
73453;BME280;61687;56.232;43.854;2023-04-22T05:13:39;100113.75;;;11.27;38.20
73453;BME280;61687;56.232;43.854;2023-04-22T05:16:07;100105.94;;;11.33;37.95
73453;BME280;61687;56.232;43.854;2023-04-22T05:18:35;100111.13;;;11.42;38.30
73453;BME280;61687;56.232;43.854;2023-04-22T05:21:06;100103.38;;;11.55;37.97
73453;BME280;61687;56.232;43.854;2023-04-22T05:23:33;100107.31;;;11.54;37.49
73453;BME280;61687;56.232;43.854;2023-04-22T05:26:00;100105.91;;;11.74;37.53
73453;BME280;61687;56.232;43.854;2023-04-22T05:28:26;100105.56;;;11.83;37.09
73453;BME280;61687;56.232;43.854;2023-04-22T05:30:56;100103.78;;;12.02;37.08
73453;BME280;61687;56.232;43.854;2023-04-22T05:33:24;100100.34;;;12.20;36.86
73453;BME280;61687;56.232;43.854;2023-04-22T05:35:51;100092.97;;;12.35;36.41
73453;BME280;61687;56.232;43.854;2023-04-22T05:38:18;100096.97;;;12.48;35.85
73453;BME280;61687;56.232;43.854;2023-04-22T05:40:44;100098.59;;;12.60;35.74
73453;BME280;61687;56.232;43.854;2023-04-22T05:43:12;100096.25;;;12.69;35.58
73453;BME280;61687;56.232;43.854;2023-04-22T05:45:40;100098.28;;;12.83;35.06
73453;BME280;61687;56.232;43.854;2023-04-22T05:48:08;100095.53;;;12.94;34.91
73453;BME280;61687;56.232;43.854;2023-04-22T05:50:39;100090.84;;;13.02;34.65
73453;BME280;61687;56.232;43.854;2023-04-22T05:53:07;100099.94;;;13.13;34.72
73453;BME280;61687;56.232;43.854;2023-04-22T05:55:33;100085.38;;;13.16;34.11
73453;BME280;61687;56.232;43.854;2023-04-22T05:58:00;100092.88;;;13.27;34.17
73453;BME280;61687;56.232;43.854;2023-04-22T06:00:45;100102.31;;;13.37;33.58
73453;BME280;61687;56.232;43.854;2023-04-22T06:03:28;100088.19;;;13.45;33.80
73453;BME280;61687;56.232;43.854;2023-04-22T06:05:55;100096.84;;;13.62;33.60
73453;BME280;61687;56.232;43.854;2023-04-22T06:08:22;100098.44;;;13.70;33.10
73453;BME280;61687;56.232;43.854;2023-04-22T06:10:50;100093.31;;;13.80;33.00
73453;BME280;61687;56.232;43.854;2023-04-22T06:13:16;100090.94;;;13.85;33.00
73453;BME280;61687;56.232;43.854;2023-04-22T06:15:42;100093.31;;;13.62;32.63
73453;BME280;61687;56.232;43.854;2023-04-22T06:18:08;100087.41;;;13.78;32.87
73453;BME280;61687;56.232;43.854;2023-04-22T06:20:35;100084.22;;;13.94;32.82
73453;BME280;61687;56.232;43.854;2023-04-22T06:23:01;100085.41;;;14.03;32.65
73453;BME280;61687;56.232;43.854;2023-04-22T06:25:31;100079.06;;;14.21;32.43
73453;BME280;61687;56.232;43.854;2023-04-22T06:27:57;100070.38;;;14.30;32.11
73453;BME280;61687;56.232;43.854;2023-04-22T06:30:24;100076.28;;;14.32;31.84
73453;BME280;61687;56.232;43.854;2023-04-22T06:32:51;100077.44;;;14.35;31.46
73453;BME280;61687;56.232;43.854;2023-04-22T06:35:18;100073.13;;;14.34;31.78
73453;BME280;61687;56.232;43.854;2023-04-22T06:37:46;100076.22;;;14.47;31.66
73453;BME280;61687;56.232;43.854;2023-04-22T06:40:15;100068.69;;;14.58;31.54
73453;BME280;61687;56.232;43.854;2023-04-22T06:43:00;100076.19;;;14.54;31.16
73453;BME280;61687;56.232;43.854;2023-04-22T06:45:32;100081.34;;;14.41;30.39
73453;BME280;61687;56.232;43.854;2023-04-22T06:48:19;100082.09;;;14.52;30.73
73453;BME280;61687;56.232;43.854;2023-04-22T06:51:11;100084.00;;;14.77;30.81
73453;BME280;61687;56.232;43.854;2023-04-22T06:53:37;100070.53;;;14.90;30.82
73453;BME280;61687;56.232;43.854;2023-04-22T06:56:04;100076.34;;;15.03;30.48
73453;BME280;61687;56.232;43.854;2023-04-22T06:58:30;100069.97;;;15.13;30.04
73453;BME280;61687;56.232;43.854;2023-04-22T07:00:56;100064.81;;;15.19;29.77
73453;BME280;61687;56.232;43.854;2023-04-22T07:03:22;100076.97;;;15.29;30.01
73453;BME280;61687;56.232;43.854;2023-04-22T07:05:59;100069.03;;;15.35;29.64
73453;BME280;61687;56.232;43.854;2023-04-22T07:08:25;100064.25;;;15.42;29.79
73453;BME280;61687;56.232;43.854;2023-04-22T07:10:51;100072.03;;;15.55;29.98
73453;BME280;61687;56.232;43.854;2023-04-22T07:13:28;100071.22;;;15.58;29.45
73453;BME280;61687;56.232;43.854;2023-04-22T07:15:59;100069.59;;;15.64;29.28
73453;BME280;61687;56.232;43.854;2023-04-22T07:18:26;100072.25;;;15.75;29.37
73453;BME280;61687;56.232;43.854;2023-04-22T07:20:52;100063.53;;;15.80;29.31
73453;BME280;61687;56.232;43.854;2023-04-22T07:23:18;100065.41;;;15.91;29.13
73453;BME280;61687;56.232;43.854;2023-04-22T07:25:44;100070.91;;;15.94;29.06
73453;BME280;61687;56.232;43.854;2023-04-22T07:28:10;100067.63;;;16.07;29.30
73453;BME280;61687;56.232;43.854;2023-04-22T07:30:36;100074.25;;;16.16;28.90
73453;BME280;61687;56.232;43.854;2023-04-22T07:33:02;100067.16;;;16.15;28.45
73453;BME280;61687;56.232;43.854;2023-04-22T07:35:28;100071.50;;;16.13;28.86
73453;BME280;61687;56.232;43.854;2023-04-22T07:37:55;100069.53;;;16.13;28.30
73453;BME280;61687;56.232;43.854;2023-04-22T07:40:21;100057.53;;;16.27;28.36
73453;BME280;61687;56.232;43.854;2023-04-22T07:42:47;100066.09;;;16.37;28.18
73453;BME280;61687;56.232;43.854;2023-04-22T07:45:13;100073.50;;;16.47;27.89
73453;BME280;61687;56.232;43.854;2023-04-22T07:47:39;100064.59;;;16.63;27.52
73453;BME280;61687;56.232;43.854;2023-04-22T07:50:05;100063.91;;;16.55;27.24
73453;BME280;61687;56.232;43.854;2023-04-22T07:52:31;100067.03;;;16.57;26.96
73453;BME280;61687;56.232;43.854;2023-04-22T07:54:57;100070.50;;;16.65;27.30
73453;BME280;61687;56.232;43.854;2023-04-22T07:57:23;100071.19;;;16.73;27.39
73453;BME280;61687;56.232;43.854;2023-04-22T07:59:50;100069.88;;;16.81;26.99
73453;BME280;61687;56.232;43.854;2023-04-22T08:02:16;100066.59;;;16.90;26.91
73453;BME280;61687;56.232;43.854;2023-04-22T08:04:42;100055.41;;;17.01;26.93
73453;BME280;61687;56.232;43.854;2023-04-22T08:07:09;100063.97;;;17.10;26.71
73453;BME280;61687;56.232;43.854;2023-04-22T08:09:35;100059.16;;;17.14;26.61
73453;BME280;61687;56.232;43.854;2023-04-22T08:12:01;100063.88;;;17.17;26.75
73453;BME280;61687;56.232;43.854;2023-04-22T08:14:27;100060.38;;;17.13;26.63
73453;BME280;61687;56.232;43.854;2023-04-22T08:16:53;100058.34;;;16.86;26.15
73453;BME280;61687;56.232;43.854;2023-04-22T08:19:20;100058.19;;;16.70;26.43
73453;BME280;61687;56.232;43.854;2023-04-22T08:21:46;100068.50;;;16.66;26.74
73453;BME280;61687;56.232;43.854;2023-04-22T08:24:13;100062.97;;;16.66;27.11
73453;BME280;61687;56.232;43.854;2023-04-22T08:26:40;100061.06;;;16.90;27.10
73453;BME280;61687;56.232;43.854;2023-04-22T08:29:06;100071.66;;;16.99;26.49
73453;BME280;61687;56.232;43.854;2023-04-22T08:31:33;100060.84;;;16.77;26.06
73453;BME280;61687;56.232;43.854;2023-04-22T08:33:59;100063.63;;;16.77;26.62
73453;BME280;61687;56.232;43.854;2023-04-22T08:36:25;100061.38;;;16.99;26.72
73453;BME280;61687;56.232;43.854;2023-04-22T08:38:53;100060.94;;;17.01;26.57
73453;BME280;61687;56.232;43.854;2023-04-22T08:41:21;100077.06;;;17.06;26.14
73453;BME280;61687;56.232;43.854;2023-04-22T08:43:54;100065.06;;;16.85;26.12
73453;BME280;61687;56.232;43.854;2023-04-22T08:46:21;100069.03;;;16.84;26.29
73453;BME280;61687;56.232;43.854;2023-04-22T08:48:50;100067.63;;;16.72;26.11
73453;BME280;61687;56.232;43.854;2023-04-22T08:51:17;100066.72;;;16.83;26.35
73453;BME280;61687;56.232;43.854;2023-04-22T08:53:43;100064.78;;;17.07;26.78
73453;BME280;61687;56.232;43.854;2023-04-22T08:56:12;100077.06;;;17.34;26.34
73453;BME280;61687;56.232;43.854;2023-04-22T08:58:41;100071.25;;;17.52;26.03
73453;BME280;61687;56.232;43.854;2023-04-22T09:01:08;100070.63;;;17.64;26.06
73453;BME280;61687;56.232;43.854;2023-04-22T09:03:35;100068.38;;;17.79;25.97
73453;BME280;61687;56.232;43.854;2023-04-22T09:06:04;100057.84;;;17.94;25.75
73453;BME280;61687;56.232;43.854;2023-04-22T09:08:31;100060.28;;;18.12;25.99
73453;BME280;61687;56.232;43.854;2023-04-22T09:10:58;100067.34;;;17.93;25.26
73453;BME280;61687;56.232;43.854;2023-04-22T09:13:25;100060.25;;;17.68;25.05
73453;BME280;61687;56.232;43.854;2023-04-22T09:15:51;100070.63;;;17.64;25.51
73453;BME280;61687;56.232;43.854;2023-04-22T09:18:18;100065.44;;;17.42;25.11
73453;BME280;61687;56.232;43.854;2023-04-22T09:20:48;100060.78;;;17.12;25.25
73453;BME280;61687;56.232;43.854;2023-04-22T09:23:19;100062.13;;;17.00;25.67
73453;BME280;61687;56.232;43.854;2023-04-22T09:25:46;100062.41;;;16.78;25.93
73453;BME280;61687;56.232;43.854;2023-04-22T09:28:17;100061.91;;;16.87;25.67
73453;BME280;61687;56.232;43.854;2023-04-22T09:30:44;100058.63;;;16.96;26.00
73453;BME280;61687;56.232;43.854;2023-04-22T09:33:11;100049.88;;;16.97;26.05
73453;BME280;61687;56.232;43.854;2023-04-22T09:35:40;100068.06;;;17.26;26.03
73453;BME280;61687;56.232;43.854;2023-04-22T09:38:10;100059.22;;;17.58;25.98
73453;BME280;61687;56.232;43.854;2023-04-22T09:40:41;100063.53;;;17.63;25.59
73453;BME280;61687;56.232;43.854;2023-04-22T09:43:08;100062.44;;;17.81;25.72
73453;BME280;61687;56.232;43.854;2023-04-22T09:45:39;100057.84;;;17.94;25.09
73453;BME280;61687;56.232;43.854;2023-04-22T09:50:37;100058.81;;;17.84;25.05
73453;BME280;61687;56.232;43.854;2023-04-22T09:53:08;100051.84;;;17.96;25.01
73453;BME280;61687;56.232;43.854;2023-04-22T09:55:43;100051.97;;;18.12;25.14
73453;BME280;61687;56.232;43.854;2023-04-22T09:58:12;100054.81;;;18.29;24.78
73453;BME280;61687;56.232;43.854;2023-04-22T10:03:07;100048.94;;;18.64;24.13
73453;BME280;61687;56.232;43.854;2023-04-22T10:05:34;100040.19;;;19.35;23.28
73453;BME280;61687;56.232;43.854;2023-04-22T10:08:07;100045.25;;;19.70;22.14
73453;BME280;61687;56.232;43.854;2023-04-22T10:10:36;100038.50;;;20.30;22.11
73453;BME280;61687;56.232;43.854;2023-04-22T10:13:03;100041.25;;;21.24;20.83
73453;BME280;61687;56.232;43.854;2023-04-22T10:15:42;100036.38;;;21.51;20.35
73453;BME280;61687;56.232;43.854;2023-04-22T10:18:11;100039.19;;;21.86;20.40
73453;BME280;61687;56.232;43.854;2023-04-22T10:20:40;100034.78;;;22.74;19.51
73453;BME280;61687;56.232;43.854;2023-04-22T10:23:13;100034.78;;;23.24;19.13
73453;BME280;61687;56.232;43.854;2023-04-22T10:25:39;100034.75;;;24.64;18.63
73453;BME280;61687;56.232;43.854;2023-04-22T10:28:08;100024.84;;;25.85;17.98
73453;BME280;61687;56.232;43.854;2023-04-22T10:30:38;100028.38;;;26.55;16.76
73453;BME280;61687;56.232;43.854;2023-04-22T10:41:15;100014.63;;;26.27;16.20
73453;BME280;61687;56.232;43.854;2023-04-22T10:43:46;100022.25;;;24.32;17.60
73453;BME280;61687;56.232;43.854;2023-04-22T10:49:00;100022.88;;;22.51;18.96
73453;BME280;61687;56.232;43.854;2023-04-22T10:54:05;100036.16;;;23.20;18.57
73453;BME280;61687;56.232;43.854;2023-04-22T10:56:31;100028.34;;;24.11;18.07
73453;BME280;61687;56.232;43.854;2023-04-22T10:58:57;100023.78;;;25.09;17.63
73453;BME280;61687;56.232;43.854;2023-04-22T11:01:26;100025.78;;;25.42;16.67
73453;BME280;61687;56.232;43.854;2023-04-22T11:03:52;100023.78;;;25.09;17.09
73453;BME280;61687;56.232;43.854;2023-04-22T11:06:20;100019.84;;;24.49;17.23
73453;BME280;61687;56.232;43.854;2023-04-22T11:09:07;100033.78;;;23.78;17.28
73453;BME280;61687;56.232;43.854;2023-04-22T11:11:34;100023.81;;;23.49;18.04
73453;BME280;61687;56.232;43.854;2023-04-22T11:14:00;100023.66;;;23.43;18.16
73453;BME280;61687;56.232;43.854;2023-04-22T11:16:26;100026.03;;;22.94;18.20
73453;BME280;61687;56.232;43.854;2023-04-22T11:18:54;100035.97;;;23.05;18.24
73453;BME280;61687;56.232;43.854;2023-04-22T11:21:21;100031.28;;;22.92;18.31
73453;BME280;61687;56.232;43.854;2023-04-22T11:23:51;100033.31;;;22.92;18.21
73453;BME280;61687;56.232;43.854;2023-04-22T11:26:34;100022.25;;;23.29;17.71
73453;BME280;61687;56.232;43.854;2023-04-22T11:29:00;100032.22;;;23.86;17.29
73453;BME280;61687;56.232;43.854;2023-04-22T11:31:26;100028.59;;;24.41;16.67
73453;BME280;61687;56.232;43.854;2023-04-22T11:33:52;100025.00;;;24.41;16.96
73453;BME280;61687;56.232;43.854;2023-04-22T11:36:18;100026.06;;;25.20;16.30
73453;BME280;61687;56.232;43.854;2023-04-22T11:38:56;100025.69;;;26.81;15.83
73453;BME280;61687;56.232;43.854;2023-04-22T11:41:22;100026.59;;;27.91;15.01
73453;BME280;61687;56.232;43.854;2023-04-22T11:43:48;100020.81;;;29.52;14.02
73453;BME280;61687;56.232;43.854;2023-04-22T11:46:14;100016.03;;;30.95;13.19
73453;BME280;61687;56.232;43.854;2023-04-22T11:48:40;100015.16;;;31.88;12.56
73453;BME280;61687;56.232;43.854;2023-04-22T11:51:08;100015.31;;;31.53;12.81
73453;BME280;61687;56.232;43.854;2023-04-22T11:53:35;100014.28;;;31.51;12.89
73453;BME280;61687;56.232;43.854;2023-04-22T11:56:03;100023.00;;;31.59;12.75
73453;BME280;61687;56.232;43.854;2023-04-22T11:58:29;100017.38;;;30.60;13.07
73453;BME280;61687;56.232;43.854;2023-04-22T12:00:57;100020.47;;;30.50;13.33
73453;BME280;61687;56.232;43.854;2023-04-22T12:03:29;100019.44;;;30.19;13.43
73453;BME280;61687;56.232;43.854;2023-04-22T12:05:56;100010.97;;;29.30;13.85
73453;BME280;61687;56.232;43.854;2023-04-22T12:08:34;100022.50;;;27.66;14.41
73453;BME280;61687;56.232;43.854;2023-04-22T12:11:03;100019.66;;;26.38;15.18
73453;BME280;61687;56.232;43.854;2023-04-22T12:13:49;100024.44;;;24.61;15.87
73453;BME280;61687;56.232;43.854;2023-04-22T12:16:19;100016.22;;;23.77;16.78
73453;BME280;61687;56.232;43.854;2023-04-22T12:18:54;100014.34;;;23.74;16.79
73453;BME280;61687;56.232;43.854;2023-04-22T12:21:24;100008.09;;;25.03;16.18
73453;BME280;61687;56.232;43.854;2023-04-22T12:23:57;100016.84;;;26.38;15.05
73453;BME280;61687;56.232;43.854;2023-04-22T12:26:30;100012.03;;;26.89;14.85
73453;BME280;61687;56.232;43.854;2023-04-22T12:28:57;100009.16;;;25.93;15.57
73453;BME280;61687;56.232;43.854;2023-04-22T12:31:24;100011.38;;;26.64;15.30
73453;BME280;61687;56.232;43.854;2023-04-22T12:33:51;100012.47;;;25.92;15.84
73453;BME280;61687;56.232;43.854;2023-04-22T12:36:19;100010.88;;;24.69;16.59
73453;BME280;61687;56.232;43.854;2023-04-22T12:38:48;100015.09;;;23.28;17.56
73453;BME280;61687;56.232;43.854;2023-04-22T12:41:16;100012.19;;;22.50;18.21
73453;BME280;61687;56.232;43.854;2023-04-22T12:43:42;100011.50;;;22.45;18.35
73453;BME280;61687;56.232;43.854;2023-04-22T12:46:08;100014.97;;;22.50;18.52
73453;BME280;61687;56.232;43.854;2023-04-22T12:48:35;100005.38;;;22.06;18.88
73453;BME280;61687;56.232;43.854;2023-04-22T12:51:05;100005.41;;;21.36;19.47
73453;BME280;61687;56.232;43.854;2023-04-22T12:53:31;100010.16;;;20.74;20.00
73453;BME280;61687;56.232;43.854;2023-04-22T12:55:57;100000.66;;;21.10;19.55
73453;BME280;61687;56.232;43.854;2023-04-22T12:58:25;99999.91;;;23.57;17.83
73453;BME280;61687;56.232;43.854;2023-04-22T13:00:51;100000.34;;;25.85;16.13
73453;BME280;61687;56.232;43.854;2023-04-22T13:03:17;100007.47;;;27.75;15.02
73453;BME280;61687;56.232;43.854;2023-04-22T13:05:44;100000.50;;;27.49;15.07